KHQM/HQM METAR and TAF weather

Enter ICAO airport designator
Station Type Date Time Source
KHQM METAR 2020/12/06 00:53 UTC NOAA

KHQM 060053Z AUTO 11009KT 10SM OVC050 11/04 A2999 RMK AO2 SLP159 T01060044


Station Type Date Time Source
KHQM Decoded METAR 2020/12/06 00:53 UTC NOAA

HOQUIAM BOWERMAN AIRPORT, WA, United States (KHQM) 46-58N 123-56W 7M
Dec 05, 2020 - 07:53 PM EST / 2020.12.06 0053 UTC
Wind: from the ESE (110 degrees) at 10 MPH (9 KT):0
Visibility: 10 mile(s):0
Sky conditions: overcast
Temperature: 51.1 F (10.6 C)
Dew Point: 39.9 F (4.4 C)
Relative Humidity: 65%
Pressure (altimeter): 29.99 in. Hg (1015 hPa)
ob: KHQM 060053Z AUTO 11009KT 10SM OVC050 11/04 A2999 RMK AO2 SLP159 T01060044
cycle: 1

Station Type Date Time Source
KHQM TAF 2020/12/06 01:46 UTC NOAA

TAF
AMD KHQM 060043Z 0601/0624 10010KT P6SM FEW040 BKN100
TEMPO 0601/0603 -RA
FM060300 10010KT P6SM -RA BKN040 OVC070
FM060900 15007KT 4SM -SHRA BR OVC015
FM061800 16007KT P6SM OVC050

Example: see airport list